createdAt,value
2022-10-18T00:00:25.558Z,17.32
2022-10-18T00:02:53.235Z,17.32
2022-10-18T00:05:20.903Z,17.32
2022-10-18T00:07:48.591Z,17.33
2022-10-18T00:10:16.224Z,17.33
2022-10-18T00:12:44.142Z,17.34
2022-10-18T00:15:13.520Z,17.37
2022-10-18T00:17:41.501Z,17.38
2022-10-18T00:20:10.408Z,17.36
2022-10-18T00:22:39.792Z,17.40
2022-10-18T00:25:08.969Z,17.38
2022-10-18T00:27:37.386Z,17.39
2022-10-18T00:30:05.865Z,17.39
2022-10-18T00:32:38.535Z,17.39
2022-10-18T00:35:07.214Z,17.39
2022-10-18T00:37:35.269Z,17.38
2022-10-18T00:40:03.179Z,17.38
2022-10-18T00:42:33.090Z,17.37
2022-10-18T00:45:15.432Z,17.36
2022-10-18T00:47:45.775Z,17.37
2022-10-18T00:50:13.766Z,17.36
2022-10-18T00:52:44.244Z,17.35
2022-10-18T00:55:12.542Z,17.34
2022-10-18T00:57:41.516Z,17.33
2022-10-18T01:00:10.747Z,17.33
2022-10-18T01:02:39.350Z,17.32
2022-10-18T01:05:11.139Z,17.31
2022-10-18T01:07:49.404Z,17.29
2022-10-18T01:10:26.577Z,17.31
2022-10-18T01:13:04.433Z,17.26
2022-10-18T01:15:35.222Z,17.30
2022-10-18T01:18:09.053Z,17.28
2022-10-18T01:21:13.159Z,17.29
2022-10-18T01:24:02.929Z,17.27
2022-10-18T01:26:41.123Z,17.23
2022-10-18T01:29:16.673Z,17.27
2022-10-18T01:31:46.729Z,17.17
2022-10-18T01:34:16.568Z,17.23
2022-10-18T01:36:46.302Z,17.26
2022-10-18T01:39:16.542Z,17.19
2022-10-18T01:41:45.769Z,17.19
2022-10-18T01:44:16.483Z,17.21
2022-10-18T01:46:46.011Z,17.25
2022-10-18T01:49:14.055Z,17.21
2022-10-18T01:51:41.723Z,17.24
2022-10-18T01:54:10.915Z,17.21
2022-10-18T01:56:44.233Z,17.19
2022-10-18T01:59:29.978Z,17.23
2022-10-18T02:02:04.151Z,17.20
2022-10-18T02:04:36.858Z,17.20
2022-10-18T02:07:07.783Z,17.17
2022-10-18T02:09:39.463Z,17.18
2022-10-18T02:12:09.048Z,17.16
2022-10-18T02:14:37.442Z,17.17
2022-10-18T02:17:08.568Z,17.18
2022-10-18T02:19:40.264Z,17.17
2022-10-18T02:22:08.928Z,17.16
2022-10-18T02:24:38.874Z,17.16
2022-10-18T02:27:06.738Z,17.15
2022-10-18T02:29:34.852Z,17.13
2022-10-18T02:32:07.703Z,17.13
2022-10-18T02:34:39.159Z,17.10
2022-10-18T02:37:07.198Z,17.12
2022-10-18T02:39:36.621Z,17.12
2022-10-18T02:42:06.791Z,17.13
2022-10-18T02:44:34.642Z,17.12
2022-10-18T02:47:02.508Z,17.11
2022-10-18T02:49:31.577Z,17.11
2022-10-18T02:51:59.212Z,17.10
2022-10-18T02:54:26.871Z,17.12
2022-10-18T02:56:54.600Z,17.12
2022-10-18T02:59:22.224Z,17.11
2022-10-18T03:01:49.897Z,17.11
2022-10-18T03:04:17.594Z,17.11
2022-10-18T03:06:46.731Z,17.10
2022-10-18T03:09:14.393Z,17.09
2022-10-18T03:11:42.002Z,17.07
2022-10-18T03:14:09.633Z,17.06
2022-10-18T03:16:37.300Z,17.05
2022-10-18T03:19:04.991Z,17.01
2022-10-18T03:21:32.592Z,16.99
2022-10-18T03:24:01.629Z,17.00
2022-10-18T03:26:29.569Z,17.00
2022-10-18T03:28:57.322Z,16.99
2022-10-18T03:31:25.107Z,16.98
2022-10-18T03:33:52.757Z,16.96
2022-10-18T03:36:20.391Z,16.97
2022-10-18T03:38:47.998Z,16.98
2022-10-18T03:41:17.037Z,16.95
2022-10-18T03:43:44.685Z,16.96
2022-10-18T03:46:12.314Z,16.96
2022-10-18T03:48:40.138Z,16.95
2022-10-18T03:51:07.743Z,16.95
2022-10-18T03:53:35.341Z,16.95
2022-10-18T03:56:03.060Z,16.94
2022-10-18T04:00:59.739Z,16.92
2022-10-18T04:03:27.538Z,16.91
2022-10-18T04:05:55.150Z,16.88
2022-10-18T04:08:22.707Z,16.86
2022-10-18T04:10:50.397Z,16.85
2022-10-18T04:13:18.050Z,16.82
2022-10-18T04:15:47.081Z,16.80
2022-10-18T04:18:14.714Z,16.79
2022-10-18T04:20:42.379Z,16.78
2022-10-18T04:23:10.003Z,16.76
2022-10-18T04:25:37.704Z,16.74
2022-10-18T04:28:05.631Z,16.73
2022-10-18T04:30:33.275Z,16.73
2022-10-18T04:33:02.556Z,16.72
2022-10-18T04:35:30.263Z,16.71
2022-10-18T04:37:57.918Z,16.71
2022-10-18T04:40:25.570Z,16.71
2022-10-18T04:42:53.205Z,16.72
2022-10-18T04:45:20.851Z,16.68
2022-10-18T04:47:48.493Z,16.71
2022-10-18T04:50:17.636Z,16.71
2022-10-18T04:52:45.374Z,16.70
2022-10-18T04:55:13.125Z,16.70
2022-10-18T04:57:40.789Z,16.68
2022-10-18T05:00:09.166Z,16.70
2022-10-18T05:02:36.814Z,16.68
2022-10-18T05:05:05.810Z,16.67
2022-10-18T05:07:36.032Z,16.68
2022-10-18T05:10:03.758Z,16.67
2022-10-18T05:12:31.683Z,16.68
2022-10-18T05:14:59.454Z,16.68
2022-10-18T05:17:27.171Z,16.66
2022-10-18T05:19:54.795Z,16.67
2022-10-18T05:22:22.515Z,16.68
2022-10-18T05:24:51.554Z,16.68
2022-10-18T05:27:19.220Z,16.67
2022-10-18T05:29:47.023Z,16.67
2022-10-18T05:32:14.721Z,16.67
2022-10-18T05:34:42.359Z,16.67
2022-10-18T05:37:10.055Z,16.67
2022-10-18T05:39:38.486Z,16.66
2022-10-18T05:42:08.693Z,16.66
2022-10-18T05:44:36.396Z,16.66
2022-10-18T05:47:04.055Z,16.66
2022-10-18T05:49:31.730Z,16.60
2022-10-18T05:51:59.390Z,16.62
2022-10-18T05:54:27.137Z,16.61
2022-10-18T05:56:54.752Z,16.59
2022-10-18T05:59:23.959Z,16.58
2022-10-18T06:01:51.695Z,16.57
2022-10-18T06:04:19.355Z,16.58
2022-10-18T06:06:47.047Z,16.54
2022-10-18T06:09:14.721Z,16.53
2022-10-18T06:11:42.348Z,16.51
2022-10-18T06:14:11.000Z,16.49
2022-10-18T06:16:40.092Z,16.47
2022-10-18T06:19:07.867Z,16.43
2022-10-18T06:21:35.645Z,16.39
2022-10-18T06:24:03.361Z,16.38
2022-10-18T06:26:30.985Z,16.39
2022-10-18T06:28:58.716Z,16.37
2022-10-18T06:31:26.605Z,16.40
2022-10-18T06:33:57.132Z,16.30
2022-10-18T06:36:25.027Z,16.34
2022-10-18T06:38:52.718Z,16.30
2022-10-18T06:41:21.470Z,16.29
2022-10-18T06:43:49.892Z,16.27
2022-10-18T06:46:18.037Z,16.24
2022-10-18T06:48:45.684Z,16.18
2022-10-18T06:51:15.168Z,16.15
2022-10-18T06:53:53.482Z,16.10
2022-10-18T06:56:30.899Z,16.03
2022-10-18T07:01:31.307Z,15.97
2022-10-18T07:03:59.089Z,15.98
2022-10-18T07:06:28.147Z,15.98
2022-10-18T07:08:56.148Z,16.00
2022-10-18T07:11:25.418Z,15.95
2022-10-18T07:13:54.019Z,16.01
2022-10-18T07:16:22.048Z,16.01
2022-10-18T07:18:50.673Z,16.00
2022-10-18T07:21:20.411Z,15.98
2022-10-18T07:23:49.868Z,15.89
2022-10-18T07:26:19.333Z,15.87
2022-10-18T07:28:48.860Z,15.87
2022-10-18T07:31:16.630Z,15.89
2022-10-18T07:33:44.283Z,15.90
2022-10-18T07:36:13.423Z,15.92
2022-10-18T07:38:41.599Z,15.95
2022-10-18T07:41:12.725Z,15.98
2022-10-18T07:43:43.426Z,15.99
2022-10-18T07:46:11.234Z,15.98
2022-10-18T07:48:38.884Z,15.99
2022-10-18T07:51:06.926Z,16.01
2022-10-18T07:53:34.779Z,16.00
2022-10-18T07:56:07.105Z,16.00
2022-10-18T07:58:38.669Z,15.99
2022-10-18T08:01:07.670Z,16.00
2022-10-18T08:03:35.598Z,16.00
2022-10-18T08:06:03.887Z,15.99
2022-10-18T08:08:31.675Z,15.99
2022-10-18T08:11:03.705Z,15.98
2022-10-18T08:13:31.427Z,15.97
2022-10-18T08:16:02.761Z,16.03
2022-10-18T08:18:30.437Z,16.05
2022-10-18T08:20:58.124Z,16.08
2022-10-18T08:23:25.773Z,16.10
2022-10-18T08:25:53.404Z,16.15
2022-10-18T08:28:21.118Z,16.16
2022-10-18T08:30:48.733Z,16.20
2022-10-18T08:33:17.800Z,16.19
2022-10-18T08:35:45.475Z,16.22
2022-10-18T08:38:18.017Z,16.23
2022-10-18T08:40:46.543Z,16.25
2022-10-18T08:43:21.579Z,16.22
2022-10-18T08:45:50.946Z,16.24
2022-10-18T08:48:23.019Z,16.20
2022-10-18T08:50:51.421Z,16.19
2022-10-18T08:53:21.977Z,16.19
2022-10-18T08:55:52.680Z,16.22
2022-10-18T08:58:22.656Z,16.23
2022-10-18T09:00:58.501Z,16.25
2022-10-18T09:03:39.706Z,16.25
2022-10-18T09:06:17.664Z,16.25
2022-10-18T09:08:54.370Z,16.24
2022-10-18T09:11:31.447Z,16.31
2022-10-18T09:14:19.105Z,16.32
2022-10-18T09:16:51.694Z,16.40
2022-10-18T09:19:31.028Z,16.40
2022-10-18T09:22:04.011Z,16.40
2022-10-18T09:24:37.552Z,16.48
2022-10-18T09:27:06.580Z,16.52
2022-10-18T09:29:43.398Z,16.59
2022-10-18T09:32:22.422Z,16.61
2022-10-18T09:34:54.638Z,16.58
2022-10-18T09:37:23.811Z,16.61
2022-10-18T09:39:53.159Z,16.60
2022-10-18T09:42:26.925Z,16.61
2022-10-18T09:44:57.796Z,16.64
2022-10-18T09:47:27.699Z,16.68
2022-10-18T09:49:59.145Z,16.73
2022-10-18T09:52:30.023Z,16.79
2022-10-18T09:55:01.161Z,16.75
2022-10-18T09:57:32.887Z,16.82
2022-10-18T10:00:01.724Z,16.86
2022-10-18T10:02:29.490Z,16.88
2022-10-18T10:04:58.696Z,16.89
2022-10-18T10:07:29.893Z,16.92
2022-10-18T10:10:06.682Z,16.97
2022-10-18T10:12:36.967Z,17.02
2022-10-18T10:15:10.483Z,17.06
2022-10-18T10:17:38.636Z,17.10
2022-10-18T10:20:19.428Z,17.14
2022-10-18T10:22:47.894Z,17.22
2022-10-18T10:25:22.850Z,17.27
2022-10-18T10:27:50.761Z,17.24
2022-10-18T10:30:24.898Z,17.24
2022-10-18T10:32:53.372Z,17.29
2022-10-18T10:35:42.151Z,17.26
2022-10-18T10:38:24.947Z,17.22
2022-10-18T10:40:52.857Z,17.23
2022-10-18T10:43:40.031Z,17.28
2022-10-18T10:46:10.142Z,17.28
2022-10-18T10:48:43.425Z,17.26
2022-10-18T10:51:13.184Z,17.29
2022-10-18T10:53:45.751Z,17.31
2022-10-18T10:56:23.996Z,17.41
2022-10-18T10:58:52.189Z,17.45
2022-10-18T11:01:23.665Z,17.43
2022-10-18T11:03:53.174Z,17.48
2022-10-18T11:06:40.723Z,17.49
2022-10-18T11:09:16.810Z,17.51
2022-10-18T11:11:49.882Z,17.52
2022-10-18T11:14:26.875Z,17.54
2022-10-18T11:17:03.089Z,17.56
2022-10-18T11:19:40.179Z,17.55
2022-10-18T11:22:14.014Z,17.64
2022-10-18T11:24:41.666Z,17.70
2022-10-18T11:27:13.679Z,17.70
2022-10-18T11:29:52.700Z,17.76
2022-10-18T11:32:26.483Z,17.77
2022-10-18T11:35:03.226Z,17.75
2022-10-18T11:37:45.340Z,17.84
2022-10-18T11:40:27.413Z,17.88
2022-10-18T11:42:59.840Z,17.88
2022-10-18T11:45:33.607Z,17.93
2022-10-18T11:48:08.020Z,17.98
2022-10-18T11:50:39.256Z,18.01
2022-10-18T11:53:15.112Z,18.01
2022-10-18T11:55:51.170Z,18.01
2022-10-18T11:58:35.938Z,17.99
2022-10-18T12:01:09.087Z,18.00
2022-10-18T12:03:46.629Z,18.08
2022-10-18T12:06:16.839Z,18.11
2022-10-18T12:08:48.161Z,18.12
2022-10-18T12:11:17.919Z,18.15
2022-10-18T12:13:48.309Z,18.13
2022-10-18T12:16:16.655Z,18.21
2022-10-18T12:18:57.383Z,18.24
2022-10-18T12:21:27.491Z,18.22
2022-10-18T12:23:59.827Z,18.27
2022-10-18T12:26:29.232Z,18.27
2022-10-18T12:29:05.555Z,18.28
2022-10-18T12:31:38.630Z,18.30
2022-10-18T12:34:17.480Z,18.32
2022-10-18T12:36:58.217Z,18.34
2022-10-18T12:39:38.742Z,18.40
2022-10-18T12:42:20.484Z,18.43
2022-10-18T12:44:48.764Z,18.43
2022-10-18T12:47:23.285Z,18.42
2022-10-18T12:49:57.566Z,18.42
2022-10-18T12:52:27.990Z,18.47
2022-10-18T12:55:07.661Z,18.50
2022-10-18T12:58:04.640Z,18.53
2022-10-18T13:00:55.530Z,18.54
2022-10-18T13:03:47.407Z,18.54
2022-10-18T13:06:15.005Z,18.57
2022-10-18T13:08:43.567Z,18.55
2022-10-18T13:11:33.477Z,18.57
2022-10-18T13:14:35.495Z,18.58
2022-10-18T13:17:08.540Z,18.61
2022-10-18T13:19:41.204Z,18.62
2022-10-18T13:22:23.308Z,18.65
2022-10-18T13:25:02.127Z,18.66
2022-10-18T13:27:39.596Z,18.62
2022-10-18T13:30:20.745Z,18.70
2022-10-18T13:32:54.426Z,18.72
2022-10-18T13:35:51.151Z,18.74
2022-10-18T13:38:43.016Z,18.72
2022-10-18T13:41:12.994Z,18.75
2022-10-18T13:44:18.721Z,18.72
2022-10-18T13:47:34.872Z,18.70
2022-10-18T13:53:27.176Z,18.72
2022-10-18T13:56:06.969Z,18.72
2022-10-18T13:58:48.813Z,18.63
2022-10-18T14:01:31.359Z,18.65
2022-10-18T14:04:26.793Z,18.66
2022-10-18T14:06:59.907Z,18.65
2022-10-18T14:09:43.839Z,18.64
2022-10-18T14:12:20.410Z,18.58
2022-10-18T14:14:52.528Z,18.58
2022-10-18T14:17:29.475Z,18.56
2022-10-18T14:20:01.168Z,18.51
2022-10-18T14:22:32.501Z,18.56
2022-10-18T14:25:00.358Z,18.51
2022-10-18T14:27:28.955Z,18.53
2022-10-18T14:30:11.073Z,18.48
2022-10-18T14:32:44.215Z,18.38
2022-10-18T14:35:32.163Z,18.38
2022-10-18T14:38:00.474Z,18.29
2022-10-18T14:40:30.920Z,18.22
2022-10-18T14:43:02.990Z,18.23
2022-10-18T14:45:30.679Z,18.20
2022-10-18T14:48:08.689Z,18.11
2022-10-18T14:50:36.358Z,18.09
2022-10-18T14:53:08.062Z,18.03
2022-10-18T14:55:37.322Z,17.99
2022-10-18T14:58:05.024Z,17.93
2022-10-18T15:00:36.388Z,17.87
2022-10-18T15:03:05.285Z,17.85
2022-10-18T15:05:34.371Z,17.85
2022-10-18T15:08:02.273Z,17.78
2022-10-18T15:10:32.347Z,17.75
2022-10-18T15:13:11.081Z,17.73
2022-10-18T15:15:39.704Z,17.69
2022-10-18T15:18:08.014Z,17.65
2022-10-18T15:20:42.333Z,17.64
2022-10-18T15:23:24.551Z,17.58
2022-10-18T15:25:52.781Z,17.61
2022-10-18T15:28:29.042Z,17.59
2022-10-18T15:30:58.542Z,17.55
2022-10-18T15:33:27.899Z,17.54
2022-10-18T15:35:56.932Z,17.53
2022-10-18T15:38:27.712Z,17.53
2022-10-18T15:40:55.885Z,17.52
2022-10-18T15:43:39.359Z,17.47
2022-10-18T15:46:07.574Z,17.47
2022-10-18T15:48:38.445Z,17.47
2022-10-18T15:51:08.903Z,17.46
2022-10-18T15:53:43.390Z,17.43
2022-10-18T15:56:27.943Z,17.38
2022-10-18T15:58:56.951Z,17.38
2022-10-18T16:01:32.505Z,17.31
2022-10-18T16:04:01.140Z,17.35
2022-10-18T16:06:30.189Z,17.31
2022-10-18T16:08:57.873Z,17.28
2022-10-18T16:11:26.469Z,17.22
2022-10-18T16:13:57.808Z,17.19
2022-10-18T16:16:29.752Z,17.16
2022-10-18T16:18:58.033Z,17.11
2022-10-18T16:21:27.776Z,17.05
2022-10-18T16:23:57.159Z,17.05
2022-10-18T16:26:25.298Z,17.02
2022-10-18T16:28:53.020Z,16.98
2022-10-18T16:31:22.754Z,16.95
2022-10-18T16:33:51.546Z,16.92
2022-10-18T16:36:21.132Z,16.83
2022-10-18T16:38:49.455Z,16.87
2022-10-18T16:41:19.054Z,16.83
2022-10-18T16:43:47.944Z,16.70
2022-10-18T16:46:17.890Z,16.77
2022-10-18T16:48:46.407Z,16.75
2022-10-18T16:51:15.490Z,16.71
2022-10-18T16:53:43.574Z,16.70
2022-10-18T16:56:14.825Z,16.68
2022-10-18T16:58:43.867Z,16.65
2022-10-18T17:01:12.414Z,16.62
2022-10-18T17:03:41.324Z,16.55
2022-10-18T17:06:14.914Z,16.52
2022-10-18T17:08:42.544Z,16.47
2022-10-18T17:11:10.832Z,16.42
2022-10-18T17:13:38.754Z,16.37
2022-10-18T17:16:08.955Z,16.32
2022-10-18T17:18:37.167Z,16.28
2022-10-18T17:21:04.966Z,16.22
2022-10-18T17:23:34.179Z,16.17
2022-10-18T17:26:06.928Z,16.12
2022-10-18T17:28:42.878Z,16.08
2022-10-18T17:31:12.475Z,16.05
2022-10-18T17:33:40.097Z,15.99
2022-10-18T17:36:08.099Z,15.95
2022-10-18T17:38:35.761Z,15.91
2022-10-18T17:41:07.602Z,15.89
2022-10-18T17:43:35.316Z,15.88
2022-10-18T17:46:02.942Z,15.85
2022-10-18T17:48:32.248Z,15.85
2022-10-18T17:50:59.929Z,15.83
2022-10-18T17:53:29.120Z,15.80
2022-10-18T17:56:02.525Z,15.78
2022-10-18T17:58:30.964Z,15.74
2022-10-18T18:00:58.942Z,15.74
2022-10-18T18:03:26.681Z,15.72
2022-10-18T18:05:55.788Z,15.69
2022-10-18T18:08:25.385Z,15.65
2022-10-18T18:10:55.106Z,15.62
2022-10-18T18:13:22.810Z,15.57
2022-10-18T18:15:50.401Z,15.53
2022-10-18T18:18:18.048Z,15.51
2022-10-18T18:20:53.352Z,15.50
2022-10-18T18:23:24.438Z,15.47
2022-10-18T18:25:56.532Z,15.43
2022-10-18T18:28:24.333Z,15.37
2022-10-18T18:30:51.939Z,15.34
2022-10-18T18:33:19.554Z,15.29
2022-10-18T18:35:55.350Z,15.27
2022-10-18T18:38:24.415Z,15.22
2022-10-18T18:40:52.071Z,15.22
2022-10-18T18:43:23.253Z,15.20
2022-10-18T18:45:52.152Z,15.18
2022-10-18T18:48:20.117Z,15.16
2022-10-18T18:50:50.577Z,15.14
2022-10-18T18:53:18.290Z,15.12
2022-10-18T18:55:48.393Z,15.08
2022-10-18T18:58:16.036Z,15.06
2022-10-18T19:00:44.573Z,15.00
2022-10-18T19:03:13.481Z,14.96
2022-10-18T19:05:41.144Z,14.92
2022-10-18T19:08:08.859Z,14.91
2022-10-18T19:10:36.525Z,14.88
2022-10-18T19:13:05.586Z,14.83
2022-10-18T19:15:33.220Z,14.80
2022-10-18T19:18:00.854Z,14.76
2022-10-18T19:20:28.506Z,14.72
2022-10-18T19:22:56.128Z,14.68
2022-10-18T19:25:26.282Z,14.58
2022-10-18T19:27:54.696Z,14.59
2022-10-18T19:30:23.998Z,14.59
2022-10-18T19:32:58.663Z,14.56
2022-10-18T19:35:28.893Z,14.54
2022-10-18T19:37:56.508Z,14.50
2022-10-18T19:40:24.258Z,14.45
2022-10-18T19:42:52.324Z,14.44
2022-10-18T19:45:19.974Z,14.40
2022-10-18T19:47:49.073Z,14.39
2022-10-18T19:50:16.795Z,14.35
2022-10-18T19:52:44.450Z,14.31
2022-10-18T19:55:12.139Z,14.29
2022-10-18T19:57:39.871Z,14.24
2022-10-18T20:00:11.326Z,14.23
2022-10-18T20:02:39.519Z,14.20
2022-10-18T20:05:09.314Z,14.12
2022-10-18T20:07:37.016Z,14.12
2022-10-18T20:10:05.177Z,14.08
2022-10-18T20:12:33.158Z,14.05
2022-10-18T20:15:01.087Z,14.04
2022-10-18T20:17:28.802Z,14.03
2022-10-18T20:19:56.471Z,14.02
2022-10-18T20:22:25.486Z,14.01
2022-10-18T20:24:55.755Z,13.97
2022-10-18T20:27:23.426Z,13.88
2022-10-18T20:29:51.057Z,13.84
2022-10-18T20:32:18.766Z,13.82
2022-10-18T20:34:46.391Z,13.80
2022-10-18T20:37:14.053Z,13.80
2022-10-18T20:39:43.127Z,13.78
2022-10-18T20:42:10.806Z,13.76
2022-10-18T20:44:40.967Z,13.73
2022-10-18T20:47:08.622Z,13.72
2022-10-18T20:49:36.268Z,13.69
2022-10-18T20:52:03.951Z,13.68
2022-10-18T20:54:31.594Z,13.66
2022-10-18T20:57:00.648Z,13.63
2022-10-18T20:59:28.407Z,13.59
2022-10-18T21:01:56.062Z,13.54
2022-10-18T21:04:23.669Z,13.49
2022-10-18T21:06:51.348Z,13.45
2022-10-18T21:09:20.579Z,13.42
2022-10-18T21:11:50.506Z,13.44
2022-10-18T21:14:21.061Z,13.41
2022-10-18T21:16:49.499Z,13.40
2022-10-18T21:19:18.852Z,13.39
2022-10-18T21:21:49.533Z,13.29
2022-10-18T21:24:18.012Z,13.33
2022-10-18T21:26:45.686Z,13.32
2022-10-18T21:29:16.953Z,13.29
2022-10-18T21:31:48.562Z,13.27
2022-10-18T21:34:17.732Z,13.24
2022-10-18T21:36:46.760Z,13.21
2022-10-18T21:39:16.330Z,13.19
2022-10-18T21:41:44.780Z,13.16
2022-10-18T21:44:12.592Z,13.14
2022-10-18T21:46:42.818Z,13.13
2022-10-18T21:49:12.239Z,13.09
2022-10-18T21:51:40.348Z,13.06
2022-10-18T21:54:09.569Z,13.05
2022-10-18T21:56:37.385Z,13.00
2022-10-18T21:59:05.520Z,12.98
2022-10-18T22:01:34.832Z,12.94
2022-10-18T22:04:04.243Z,12.90
2022-10-18T22:09:05.281Z,12.84
2022-10-18T22:11:34.812Z,12.79
2022-10-18T22:14:02.521Z,12.74
2022-10-18T22:16:30.263Z,12.69
2022-10-18T22:18:58.689Z,12.68
2022-10-18T22:21:26.751Z,12.66
2022-10-18T22:23:57.940Z,12.65
2022-10-18T22:26:27.929Z,12.65
2022-10-18T22:28:56.525Z,12.65
2022-10-18T22:31:25.888Z,12.61
2022-10-18T22:33:54.302Z,12.58
2022-10-18T22:36:22.157Z,12.56
2022-10-18T22:38:50.177Z,12.55
2022-10-18T22:41:19.370Z,12.54
2022-10-18T22:43:47.630Z,12.50
2022-10-18T22:46:16.242Z,12.49
2022-10-18T22:48:44.164Z,12.50
2022-10-18T22:51:12.253Z,12.46
2022-10-18T22:53:40.913Z,12.43
2022-10-18T22:56:09.199Z,12.42
2022-10-18T22:58:38.307Z,12.39
2022-10-18T23:01:08.522Z,12.36
2022-10-18T23:03:36.673Z,12.30
2022-10-18T23:06:05.063Z,12.29
2022-10-18T23:08:33.268Z,12.29
2022-10-18T23:11:01.161Z,12.24
2022-10-18T23:13:29.196Z,12.20
2022-10-18T23:16:04.627Z,12.19
2022-10-18T23:18:32.935Z,12.16
2022-10-18T23:21:04.458Z,12.17
2022-10-18T23:23:34.867Z,12.12
2022-10-18T23:26:04.362Z,12.12
2022-10-18T23:28:34.628Z,12.09
2022-10-18T23:31:10.621Z,12.09
2022-10-18T23:33:38.923Z,12.07
2022-10-18T23:36:08.227Z,12.02
2022-10-18T23:38:36.380Z,12.03
2022-10-18T23:41:04.158Z,11.99
2022-10-18T23:43:31.845Z,11.95
2022-10-18T23:45:59.584Z,11.91
2022-10-18T23:48:28.610Z,11.89
2022-10-18T23:50:56.308Z,11.88
2022-10-18T23:53:24.524Z,11.89
2022-10-18T23:55:55.894Z,11.87
2022-10-18T23:58:24.295Z,11.84
